createdAt,value
2018-07-24T00:01:06.583Z,100137.39
2018-07-24T00:03:35.477Z,100140.23
2018-07-24T00:06:04.370Z,100128.55
2018-07-24T00:08:33.466Z,100134.09
2018-07-24T00:11:02.391Z,100131.02
2018-07-24T00:13:31.363Z,100130.69
2018-07-24T00:16:00.291Z,100135.55
2018-07-24T00:18:29.260Z,100137.12
2018-07-24T00:20:58.177Z,100133.70
2018-07-24T00:23:27.110Z,100132.39
2018-07-24T00:25:56.109Z,100129.20
2018-07-24T00:28:25.072Z,100135.70
2018-07-24T00:30:54.103Z,100128.81
2018-07-24T00:33:23.058Z,100136.46
2018-07-24T00:35:52.080Z,100130.42
2018-07-24T00:38:20.975Z,100135.42
2018-07-24T00:40:49.905Z,100130.42
2018-07-24T00:43:18.852Z,100127.35
2018-07-24T00:45:47.755Z,100132.98
2018-07-24T00:48:16.653Z,100127.19
2018-07-24T00:50:45.610Z,100125.95
2018-07-24T00:53:14.491Z,100123.86
2018-07-24T00:55:43.434Z,100127.03
2018-07-24T00:58:12.335Z,100123.06
2018-07-24T01:00:41.265Z,100120.06
2018-07-24T01:03:10.270Z,100121.77
2018-07-24T01:05:39.184Z,100122.44
2018-07-24T01:08:08.076Z,100121.35
2018-07-24T01:10:36.987Z,100120.45
2018-07-24T01:13:06.039Z,100120.66
2018-07-24T01:15:35.076Z,100126.39
2018-07-24T01:18:04.023Z,100125.35
2018-07-24T01:20:33.072Z,100128.83
2018-07-24T01:23:02.084Z,100126.53
2018-07-24T01:25:31.343Z,100127.73
2018-07-24T01:28:00.282Z,100121.50
2018-07-24T01:30:29.211Z,100123.30
2018-07-24T01:32:58.146Z,100127.14
2018-07-24T01:35:27.175Z,100125.09
2018-07-24T01:37:56.192Z,100125.48
2018-07-24T01:40:25.164Z,100122.96
2018-07-24T01:42:54.073Z,100119.56
2018-07-24T01:45:23.018Z,100123.47
2018-07-24T01:47:51.959Z,100125.70
2018-07-24T01:50:20.877Z,100120.26
2018-07-24T01:52:49.795Z,100120.66
2018-07-24T01:55:18.732Z,100126.20
2018-07-24T01:57:47.650Z,100127.97
2018-07-24T02:00:17.900Z,100124.97
2018-07-24T02:02:47.715Z,100120.66
2018-07-24T02:05:16.611Z,100124.47
2018-07-24T02:07:45.499Z,100123.86
2018-07-24T02:10:14.412Z,100115.08
2018-07-24T02:12:43.332Z,100117.56
2018-07-24T02:15:12.246Z,100116.07
2018-07-24T02:17:41.161Z,100114.09
2018-07-24T02:20:10.080Z,100112.48
2018-07-24T02:22:38.992Z,100112.83
2018-07-24T02:25:07.982Z,100120.95
2018-07-24T02:27:36.908Z,100116.64
2018-07-24T02:30:06.234Z,100115.53
2018-07-24T02:32:35.124Z,100114.33
2018-07-24T02:35:04.238Z,100113.70
2018-07-24T02:37:33.252Z,100114.94
2018-07-24T02:40:02.168Z,100120.12
2018-07-24T02:42:31.359Z,100120.86
2018-07-24T02:45:00.280Z,100114.02
2018-07-24T02:47:29.208Z,100119.34
2018-07-24T02:49:58.119Z,100120.78
2018-07-24T02:52:27.032Z,100116.58
2018-07-24T02:54:55.937Z,100121.59
2018-07-24T02:57:24.855Z,100119.29
2018-07-24T02:59:53.756Z,100123.80
2018-07-24T03:02:22.672Z,100128.73
2018-07-24T03:04:51.563Z,100131.78
2018-07-24T03:07:20.459Z,100126.42
2018-07-24T03:09:49.371Z,100128.83
2018-07-24T03:12:18.343Z,100125.47
2018-07-24T03:14:47.275Z,100123.66
2018-07-24T03:17:16.195Z,100125.89
2018-07-24T03:19:45.323Z,100126.28
2018-07-24T03:22:14.247Z,100122.48
2018-07-24T03:24:44.123Z,100127.33
2018-07-24T03:27:13.132Z,100127.89
2018-07-24T03:29:42.040Z,100130.28
2018-07-24T03:32:11.249Z,100138.00
2018-07-24T03:34:40.241Z,100144.83
2018-07-24T03:37:09.146Z,100149.28
2018-07-24T03:39:38.116Z,100152.73
2018-07-24T03:42:07.031Z,100146.27
2018-07-24T03:44:35.973Z,100147.62
2018-07-24T03:47:04.882Z,100143.41
2018-07-24T03:49:33.826Z,100145.55
2018-07-24T03:52:02.743Z,100147.94
2018-07-24T03:54:31.665Z,100147.30
2018-07-24T03:57:00.631Z,100152.23
2018-07-24T03:59:29.651Z,100154.40
2018-07-24T04:01:58.695Z,100152.83
2018-07-24T04:04:28.141Z,100153.13
2018-07-24T04:06:57.075Z,100155.19
2018-07-24T04:09:26.000Z,100155.58
2018-07-24T04:11:55.005Z,100154.06
2018-07-24T04:14:23.943Z,100161.56
2018-07-24T04:16:52.848Z,100166.64
2018-07-24T04:19:21.751Z,100165.67
2018-07-24T04:21:50.656Z,100165.67
2018-07-24T04:24:19.565Z,100163.52
2018-07-24T04:26:48.483Z,100158.15
2018-07-24T04:29:17.378Z,100162.77
2018-07-24T04:31:46.315Z,100156.22
2018-07-24T04:34:15.257Z,100157.64
2018-07-24T04:36:44.166Z,100159.22
2018-07-24T04:39:13.076Z,100162.18
2018-07-24T04:41:41.990Z,100159.47
2018-07-24T04:44:10.928Z,100157.69
2018-07-24T04:46:39.869Z,100160.30
2018-07-24T04:49:08.785Z,100155.61
2018-07-24T04:51:37.693Z,100157.38
2018-07-24T04:54:06.652Z,100157.28
2018-07-24T04:56:35.660Z,100161.63
2018-07-24T04:59:04.594Z,100161.70
2018-07-24T05:01:33.549Z,100157.64
2018-07-24T05:04:02.463Z,100157.17
2018-07-24T05:06:31.431Z,100155.50
2018-07-24T05:09:00.331Z,100160.41
2018-07-24T05:11:29.232Z,100162.20
2018-07-24T05:13:58.132Z,100160.39
2018-07-24T05:16:27.047Z,100160.38
2018-07-24T05:18:55.963Z,100160.17
2018-07-24T05:21:24.879Z,100162.73
2018-07-24T05:23:54.015Z,100156.69
2018-07-24T05:26:22.903Z,100157.05
2018-07-24T05:28:51.832Z,100152.50
2018-07-24T05:31:20.769Z,100152.86
2018-07-24T05:33:49.695Z,100157.76
2018-07-24T05:36:18.606Z,100155.11
2018-07-24T05:38:47.771Z,100154.89
2018-07-24T05:41:16.628Z,100154.05
2018-07-24T05:43:45.549Z,100155.20
2018-07-24T05:46:14.491Z,100155.19
2018-07-24T05:48:43.468Z,100155.80
2018-07-24T05:51:12.383Z,100152.39
2018-07-24T05:53:41.408Z,100165.09
2018-07-24T05:56:10.345Z,100162.08
2018-07-24T05:58:39.246Z,100159.34
2018-07-24T06:01:08.191Z,100165.19
2018-07-24T06:03:37.132Z,100162.55
2018-07-24T06:06:06.096Z,100153.77
2018-07-24T06:08:35.051Z,100158.02
2018-07-24T06:11:04.034Z,100156.96
2018-07-24T06:13:32.994Z,100153.50
2018-07-24T06:16:02.775Z,100150.35
2018-07-24T06:18:31.920Z,100140.69
2018-07-24T06:21:00.927Z,100137.83
2018-07-24T06:23:30.003Z,100138.26
2018-07-24T06:25:58.845Z,100137.58
2018-07-24T06:28:27.803Z,100142.73
2018-07-24T06:30:56.741Z,100139.99
2018-07-24T06:33:26.706Z,100138.14
2018-07-24T06:35:55.685Z,100141.20
2018-07-24T06:38:24.624Z,100137.61
2018-07-24T06:40:53.641Z,100138.12
2018-07-24T06:43:22.579Z,100135.81
2018-07-24T06:45:51.514Z,100137.20
2018-07-24T06:48:20.477Z,100143.97
2018-07-24T06:50:49.590Z,100143.97
2018-07-24T06:53:18.549Z,100140.30
2018-07-24T06:55:47.496Z,100145.63
2018-07-24T06:58:16.516Z,100138.65
2018-07-24T07:00:45.517Z,100139.14
2018-07-24T07:03:14.725Z,100137.81
2018-07-24T07:05:43.675Z,100132.27
2018-07-24T07:08:12.686Z,100139.92
2018-07-24T07:10:41.583Z,100138.04
2018-07-24T07:13:10.551Z,100135.31
2018-07-24T07:15:39.419Z,100138.20
2018-07-24T07:18:09.384Z,100143.95
2018-07-24T07:20:38.460Z,100134.14
2018-07-24T07:23:07.356Z,100127.56
2018-07-24T07:25:36.349Z,100122.57
2018-07-24T07:28:05.498Z,100120.65
2018-07-24T07:30:34.436Z,100116.08
2018-07-24T07:33:03.328Z,100118.02
2018-07-24T07:35:32.270Z,100123.95
2018-07-24T07:38:01.462Z,100119.49
2018-07-24T07:40:30.456Z,100115.21
2018-07-24T07:42:59.375Z,100113.27
2018-07-24T07:45:28.308Z,100108.75
2018-07-24T07:47:57.568Z,100103.14
2018-07-24T07:50:26.534Z,100100.60
2018-07-24T07:52:55.573Z,100096.03
2018-07-24T07:55:24.614Z,100103.58
2018-07-24T07:57:53.521Z,100102.67
2018-07-24T08:00:22.417Z,100099.80
2018-07-24T08:02:51.533Z,100096.97
2018-07-24T08:05:20.514Z,100097.13
2018-07-24T08:07:49.729Z,100098.59
2018-07-24T08:10:18.722Z,100101.63
2018-07-24T08:12:47.821Z,100095.20
2018-07-24T08:15:16.744Z,100098.88
2018-07-24T08:17:45.633Z,100098.02
2018-07-24T08:20:14.539Z,100093.32
2018-07-24T08:22:43.539Z,100091.48
2018-07-24T08:25:12.455Z,100086.41
2018-07-24T08:27:41.496Z,100091.45
2018-07-24T08:30:10.601Z,100079.00
2018-07-24T08:32:39.523Z,100083.12
2018-07-24T08:35:08.423Z,100082.31
2018-07-24T08:37:38.677Z,100080.78
2018-07-24T08:40:07.840Z,100079.83
2018-07-24T08:42:37.089Z,100075.28
2018-07-24T08:45:06.904Z,100078.73
2018-07-24T08:47:35.875Z,100078.73
2018-07-24T08:50:05.282Z,100074.13
2018-07-24T08:52:34.501Z,100065.55
2018-07-24T08:55:03.738Z,100059.19
2018-07-24T08:57:32.564Z,100061.56
2018-07-24T09:00:01.586Z,100060.39
2018-07-24T09:02:30.479Z,100064.13
2018-07-24T09:04:59.379Z,100061.99
2018-07-24T09:07:28.272Z,100060.70
2018-07-24T09:09:57.244Z,100069.23
2018-07-24T09:12:26.135Z,100064.94
2018-07-24T09:14:55.083Z,100059.11
2018-07-24T09:17:24.018Z,100061.47
2018-07-24T09:19:52.930Z,100062.52
2018-07-24T09:22:21.892Z,100063.05
2018-07-24T09:24:50.844Z,100056.11
2018-07-24T09:27:19.787Z,100056.44
2018-07-24T09:29:48.688Z,100051.61
2018-07-24T09:32:18.664Z,100056.09
2018-07-24T09:34:47.586Z,100054.97
2018-07-24T09:37:16.493Z,100057.23
2018-07-24T09:39:45.378Z,100049.73
2018-07-24T09:42:14.285Z,100054.72
2018-07-24T09:44:43.165Z,100045.08
2018-07-24T09:47:12.061Z,100035.64
2018-07-24T09:49:40.973Z,100034.05
2018-07-24T09:52:09.899Z,100028.13
2018-07-24T09:54:38.801Z,100036.02
2018-07-24T09:57:07.720Z,100031.50
2018-07-24T09:59:36.612Z,100037.26
2018-07-24T10:02:05.651Z,100033.02
2018-07-24T10:04:34.567Z,100025.59
2018-07-24T10:07:03.498Z,100021.02
2018-07-24T10:09:32.465Z,100015.94
2018-07-24T10:12:01.430Z,100021.33
2018-07-24T10:14:30.380Z,100012.06
2018-07-24T10:16:59.438Z,100016.39
2018-07-24T10:19:28.557Z,100006.16
2018-07-24T10:21:57.596Z,100012.20
2018-07-24T10:24:26.586Z,100012.91
2018-07-24T10:26:55.477Z,100010.45
2018-07-24T10:29:24.565Z,100004.89
2018-07-24T10:31:53.483Z,100003.56
2018-07-24T10:34:22.553Z,99998.47
2018-07-24T10:36:51.475Z,99997.78
2018-07-24T10:39:20.371Z,100008.36
2018-07-24T10:41:49.271Z,99998.37
2018-07-24T10:44:18.197Z,99992.06
2018-07-24T10:46:47.149Z,99991.95
2018-07-24T10:49:16.065Z,99994.27
2018-07-24T10:51:44.959Z,99996.91
2018-07-24T10:54:13.892Z,99996.61
2018-07-24T10:56:42.796Z,99993.30
2018-07-24T10:59:11.705Z,99990.41
2018-07-24T11:01:40.656Z,99994.28
2018-07-24T11:04:09.594Z,99973.95
2018-07-24T11:06:38.500Z,99968.48
2018-07-24T11:09:08.344Z,99963.23
2018-07-24T11:11:37.235Z,99967.70
2018-07-24T11:14:06.128Z,99969.00
2018-07-24T11:16:35.058Z,99962.80
2018-07-24T11:19:03.912Z,99966.59
2018-07-24T11:21:33.541Z,99971.66
2018-07-24T11:24:02.537Z,99966.30
2018-07-24T11:26:31.773Z,99968.47
2018-07-24T11:29:00.679Z,99958.88
2018-07-24T11:31:29.599Z,99960.03
2018-07-24T11:33:58.592Z,99949.69
2018-07-24T11:36:27.491Z,99953.74
2018-07-24T11:38:56.396Z,99947.41
2018-07-24T11:41:25.375Z,99948.75
2018-07-24T11:43:55.256Z,99943.77
2018-07-24T11:46:24.190Z,99946.27
2018-07-24T11:48:53.057Z,99943.61
2018-07-24T11:51:22.065Z,99930.26
2018-07-24T11:53:50.976Z,99942.39
2018-07-24T11:56:19.908Z,99944.70
2018-07-24T11:58:48.840Z,99936.65
2018-07-24T12:01:17.976Z,99926.18
2018-07-24T12:03:46.876Z,99921.39
2018-07-24T12:06:15.785Z,99927.48
2018-07-24T12:08:44.799Z,99932.61
2018-07-24T12:11:14.751Z,99925.16
2018-07-24T12:13:43.650Z,99918.31
2018-07-24T12:16:12.549Z,99910.27
2018-07-24T12:18:41.437Z,99912.02
2018-07-24T12:21:10.347Z,99915.14
2018-07-24T12:23:39.275Z,99924.17
2018-07-24T12:26:08.199Z,99919.11
2018-07-24T12:28:37.209Z,99914.12
2018-07-24T12:31:06.132Z,99912.03
2018-07-24T12:33:35.028Z,99906.48
2018-07-24T12:36:04.049Z,99903.41
2018-07-24T12:38:32.891Z,99901.33
2018-07-24T12:41:01.899Z,99906.68
2018-07-24T12:43:30.891Z,99897.58
2018-07-24T12:46:01.817Z,99907.29
2018-07-24T12:48:31.082Z,99897.64
2018-07-24T12:51:00.749Z,99903.10
2018-07-24T12:53:30.011Z,99898.14
2018-07-24T12:55:58.988Z,99893.13
2018-07-24T12:58:27.893Z,99892.38
2018-07-24T13:00:56.850Z,99897.81
2018-07-24T13:03:25.752Z,99893.24
2018-07-24T13:05:54.721Z,99888.80
2018-07-24T13:08:23.639Z,99890.62
2018-07-24T13:10:52.629Z,99887.24
2018-07-24T13:13:21.484Z,99884.06
2018-07-24T13:15:50.400Z,99883.02
2018-07-24T13:18:19.434Z,99885.56
2018-07-24T13:20:48.320Z,99879.41
2018-07-24T13:23:17.332Z,99873.00
2018-07-24T13:25:46.376Z,99869.72
2018-07-24T13:28:15.312Z,99877.69
2018-07-24T13:30:44.212Z,99869.94
2018-07-24T13:33:13.123Z,99867.11
2018-07-24T13:35:42.056Z,99869.88
2018-07-24T13:38:10.974Z,99864.73
2018-07-24T13:40:39.876Z,99866.59
2018-07-24T13:43:08.880Z,99855.72
2018-07-24T13:45:37.803Z,99846.99
2018-07-24T13:48:07.019Z,99841.02
2018-07-24T13:50:36.264Z,99838.30
2018-07-24T13:53:05.908Z,99845.16
2018-07-24T13:55:34.956Z,99844.66
2018-07-24T13:58:03.977Z,99841.45
2018-07-24T14:00:32.870Z,99835.05
2018-07-24T14:03:01.803Z,99838.78
2018-07-24T14:05:31.648Z,99839.17
2018-07-24T14:08:00.509Z,99829.09
2018-07-24T14:10:29.663Z,99827.98
2018-07-24T14:12:58.657Z,99829.86
2018-07-24T14:15:27.591Z,99832.22
2018-07-24T14:17:56.561Z,99824.42
2018-07-24T14:20:25.469Z,99826.91
2018-07-24T14:22:54.498Z,99824.11
2018-07-24T14:25:23.411Z,99831.23
2018-07-24T14:27:52.560Z,99820.39
2018-07-24T14:30:21.547Z,99827.42
2018-07-24T14:32:50.471Z,99827.76
2018-07-24T14:35:19.429Z,99817.66
2018-07-24T15:59:47.289Z,99771.16
2018-07-24T16:02:16.167Z,99763.47
2018-07-24T16:04:45.069Z,99767.78
2018-07-24T16:07:14.068Z,99767.56
2018-07-24T16:09:43.068Z,99766.15
2018-07-24T16:12:12.104Z,99762.74
2018-07-24T16:14:41.070Z,99762.68
2018-07-24T16:17:09.975Z,99768.08
2018-07-24T16:19:45.780Z,99767.48
2018-07-24T16:22:14.882Z,99763.78
2018-07-24T16:24:43.821Z,99768.22
2018-07-24T16:27:12.736Z,99770.82
2018-07-24T16:29:41.631Z,99766.36
2018-07-24T16:32:10.755Z,99770.00
2018-07-24T16:34:39.663Z,99766.02
2018-07-24T16:37:08.573Z,99765.78
2018-07-24T16:39:37.460Z,99771.30
2018-07-24T16:42:06.356Z,99774.91
2018-07-24T16:44:35.268Z,99769.41
2018-07-24T16:47:04.204Z,99767.02
2018-07-24T16:49:33.135Z,99760.77
2018-07-24T16:52:02.096Z,99768.89
2018-07-24T16:54:31.039Z,99772.57
2018-07-24T16:56:59.937Z,99771.95
2018-07-24T16:59:28.850Z,99772.02
2018-07-24T17:01:57.755Z,99767.66
2018-07-24T17:04:26.647Z,99765.13
2018-07-24T17:06:56.610Z,99767.38
2018-07-24T17:09:25.516Z,99765.42
2018-07-24T17:11:54.415Z,99770.33
2018-07-24T17:14:23.323Z,99765.97
2018-07-24T17:16:52.234Z,99773.99
2018-07-24T17:19:21.138Z,99771.39
2018-07-24T17:21:50.078Z,99774.59
2018-07-24T17:24:19.196Z,99776.95
2018-07-24T17:26:48.122Z,99776.56
2018-07-24T17:29:17.056Z,99778.51
2018-07-24T17:31:45.987Z,99776.34
2018-07-24T17:34:14.871Z,99777.78
2018-07-24T17:36:43.825Z,99780.14
2018-07-24T17:39:13.739Z,99780.55
2018-07-24T17:41:42.798Z,99783.05
2018-07-24T17:44:11.629Z,99786.63
2018-07-24T17:46:40.527Z,99786.13
2018-07-24T17:49:09.455Z,99788.00
2018-07-24T17:51:38.488Z,99786.63
2018-07-24T17:54:07.494Z,99798.84
2018-07-24T17:56:36.379Z,99797.66
2018-07-24T17:59:05.295Z,99789.17
2018-07-24T18:01:34.188Z,99800.75
2018-07-24T18:04:03.150Z,99802.81
2018-07-24T18:06:32.025Z,99807.24
2018-07-24T18:09:00.939Z,99804.42
2018-07-24T18:11:29.944Z,99799.38
2018-07-24T18:13:58.952Z,99808.42
2018-07-24T18:16:27.866Z,99809.77
2018-07-24T18:18:56.767Z,99813.84
2018-07-24T18:21:25.709Z,99815.02
2018-07-24T18:23:54.588Z,99811.84
2018-07-24T18:26:23.482Z,99811.94
2018-07-24T18:28:52.384Z,99813.78
2018-07-24T18:31:21.427Z,99812.05
2018-07-24T18:33:50.349Z,99816.30
2018-07-24T18:36:19.279Z,99812.68
2018-07-24T18:38:48.179Z,99817.13
2018-07-24T18:41:17.109Z,99816.02
2018-07-24T18:43:45.981Z,99814.41
2018-07-24T18:46:15.195Z,99811.90
2018-07-24T18:48:44.096Z,99815.73
2018-07-24T18:51:12.999Z,99817.45
2018-07-24T18:53:41.906Z,99821.64
2018-07-24T18:56:10.786Z,99815.41
2018-07-24T18:58:39.803Z,99819.44
2018-07-24T19:01:08.756Z,99823.44
2018-07-24T19:03:37.695Z,99823.25
2018-07-24T19:06:06.579Z,99821.58
2018-07-24T19:08:35.463Z,99825.59
2018-07-24T19:11:04.378Z,99832.75
2018-07-24T19:13:33.329Z,99833.16
2018-07-24T19:16:02.296Z,99837.73
2018-07-24T19:18:31.188Z,99837.58
2018-07-24T19:21:00.077Z,99838.57
2018-07-24T19:23:29.083Z,99837.20
2018-07-24T19:25:58.043Z,99841.54
2018-07-24T19:28:26.988Z,99841.54
2018-07-24T19:30:55.902Z,99846.27
2018-07-24T19:33:24.824Z,99848.20
2018-07-24T19:35:53.744Z,99849.39
2018-07-24T19:38:22.716Z,99857.45
2018-07-24T19:40:51.667Z,99855.68
2018-07-24T19:43:20.652Z,99860.39
2018-07-24T19:45:49.546Z,99853.91
2018-07-24T19:48:18.503Z,99862.75
2018-07-24T19:50:47.499Z,99861.58
2018-07-24T19:53:16.411Z,99868.03
2018-07-24T19:55:45.392Z,99867.83
2018-07-24T19:58:14.291Z,99864.70
2018-07-24T20:00:43.236Z,99869.80
2018-07-24T20:03:12.167Z,99868.03
2018-07-24T20:05:41.204Z,99869.77
2018-07-24T20:08:10.122Z,99867.20
2018-07-24T20:10:39.021Z,99871.33
2018-07-24T20:13:07.943Z,99879.56
2018-07-24T20:15:36.852Z,99876.20
2018-07-24T20:18:05.743Z,99879.33
2018-07-24T20:20:34.671Z,99879.13
2018-07-24T20:23:03.773Z,99881.66
2018-07-24T20:25:32.627Z,99879.89
2018-07-24T20:28:01.600Z,99892.24
2018-07-24T20:30:30.967Z,99890.05
2018-07-24T20:32:59.841Z,99885.33
2018-07-24T20:35:28.799Z,99887.89
2018-07-24T20:37:57.634Z,99892.38
2018-07-24T20:40:33.249Z,99894.34
2018-07-24T20:43:02.160Z,99888.62
2018-07-24T20:45:31.325Z,99887.99
2018-07-24T20:48:00.233Z,99890.55
2018-07-24T20:50:29.140Z,99892.30
2018-07-24T20:52:58.092Z,99890.52
2018-07-24T20:55:27.016Z,99893.67
2018-07-24T20:57:55.932Z,99893.63
2018-07-24T21:00:25.470Z,99893.41
2018-07-24T21:02:54.979Z,99886.70
2018-07-24T21:05:24.522Z,99892.94
2018-07-24T21:07:53.872Z,99884.89
2018-07-24T21:10:23.452Z,99888.19
2018-07-24T21:12:52.506Z,99887.97
2018-07-24T21:15:21.387Z,99888.56
2018-07-24T21:17:50.367Z,99889.52
2018-07-24T21:20:19.695Z,99887.56
2018-07-24T21:22:48.669Z,99895.78
2018-07-24T21:25:17.655Z,99885.73
2018-07-24T21:27:46.543Z,99893.55
2018-07-24T21:30:15.519Z,99901.58
2018-07-24T21:32:44.573Z,99897.06
2018-07-24T21:35:13.503Z,99900.16
2018-07-24T21:37:42.484Z,99899.75
2018-07-24T21:40:12.579Z,99908.34
2018-07-24T21:42:42.045Z,99907.56
2018-07-24T21:45:11.128Z,99908.87
2018-07-24T21:47:40.124Z,99907.45
2018-07-24T21:50:09.122Z,99905.26
2018-07-24T21:52:38.077Z,99910.28
2018-07-24T21:55:06.993Z,99908.50
2018-07-24T21:57:35.887Z,99907.67
2018-07-24T22:00:07.502Z,99913.14
2018-07-24T22:02:36.408Z,99908.20
2018-07-24T22:05:05.419Z,99918.16
2018-07-24T22:07:35.077Z,99917.67
2018-07-24T22:10:08.353Z,99916.06
2018-07-24T22:12:37.850Z,99916.95
2018-07-24T22:15:15.306Z,99916.87
2018-07-24T22:17:44.569Z,99920.88
2018-07-24T22:20:13.560Z,99922.51
2018-07-24T22:22:42.524Z,99919.23
2018-07-24T22:25:11.487Z,99918.23
2018-07-24T22:27:40.475Z,99916.52
2018-07-24T22:30:09.909Z,99917.53
2018-07-24T22:32:38.894Z,99914.59
2018-07-24T22:35:08.811Z,99914.20
2018-07-24T22:37:38.192Z,99918.52
2018-07-24T22:40:08.069Z,99917.08
2018-07-24T22:42:36.996Z,99923.81
2018-07-24T22:45:06.372Z,99923.11
2018-07-24T22:47:35.300Z,99924.44
2018-07-24T22:50:04.590Z,99922.30
2018-07-24T22:52:33.488Z,99930.53
2018-07-24T22:55:02.526Z,99924.44
2018-07-24T22:57:31.454Z,99928.97
2018-07-24T23:00:00.331Z,99930.41
2018-07-24T23:02:29.287Z,99924.63
2018-07-24T23:04:58.185Z,99927.12
2018-07-24T23:07:27.163Z,99936.39
2018-07-24T23:09:56.089Z,99925.27
2018-07-24T23:12:25.088Z,99931.03
2018-07-24T23:14:54.030Z,99932.62
2018-07-24T23:17:23.032Z,99933.83
2018-07-24T23:19:51.957Z,99942.90
2018-07-24T23:22:20.860Z,99941.38
2018-07-24T23:24:49.782Z,99938.22
2018-07-24T23:29:46.504Z,99936.58
2018-07-24T23:32:15.399Z,99931.42
2018-07-24T23:34:44.334Z,99932.49
2018-07-24T23:37:13.279Z,99928.75
2018-07-24T23:39:42.194Z,99932.70
2018-07-24T23:42:11.269Z,99927.19
2018-07-24T23:44:40.268Z,99932.20
2018-07-24T23:47:09.260Z,99935.63
2018-07-24T23:49:38.215Z,99939.61
2018-07-24T23:52:07.150Z,99938.09
2018-07-24T23:54:36.096Z,99939.52
2018-07-24T23:57:04.983Z,99937.23
2018-07-24T23:59:33.887Z,99940.16
